createdAt,value
2018-12-18T00:00:15.697Z,6.33
2018-12-18T00:05:25.648Z,6.27
2018-12-18T00:10:34.520Z,5.93
2018-12-18T00:15:38.044Z,6.53
2018-12-18T00:20:41.440Z,5.90
2018-12-18T00:25:44.991Z,6.83
2018-12-18T00:30:48.392Z,6.90
2018-12-18T00:35:51.848Z,6.60
2018-12-18T00:40:55.656Z,8.30
2018-12-18T00:45:59.132Z,8.30
2018-12-18T00:51:02.737Z,7.10
2018-12-18T00:56:06.302Z,8.60
2018-12-18T01:01:09.939Z,8.07
2018-12-18T01:06:13.492Z,7.30
2018-12-18T01:11:17.182Z,7.50
2018-12-18T01:16:20.987Z,8.13
2018-12-18T01:21:24.536Z,7.30
2018-12-18T01:26:27.968Z,9.03
2018-12-18T01:31:31.481Z,8.47
2018-12-18T01:36:35.082Z,7.00
2018-12-18T01:41:38.512Z,9.07
2018-12-18T01:46:42.183Z,7.67
2018-12-18T01:51:45.580Z,7.57
2018-12-18T01:56:49.085Z,7.33
2018-12-18T02:01:52.740Z,7.90
2018-12-18T02:06:56.176Z,7.70
2018-12-18T02:11:59.708Z,7.63
2018-12-18T02:17:03.232Z,6.67
2018-12-18T02:22:06.643Z,7.37
2018-12-18T02:27:10.228Z,7.37
2018-12-18T02:32:13.644Z,7.00
2018-12-18T02:37:17.062Z,6.47
2018-12-18T02:42:20.841Z,7.20
2018-12-18T02:47:24.291Z,7.57
2018-12-18T02:52:28.561Z,6.33
2018-12-18T02:57:32.049Z,6.40
2018-12-18T03:02:35.550Z,6.63
2018-12-18T03:07:38.961Z,5.47
2018-12-18T03:12:42.652Z,5.17
2018-12-18T03:17:46.156Z,5.53
2018-12-18T03:22:49.705Z,5.77
2018-12-18T03:27:53.212Z,5.43
2018-12-18T03:32:58.474Z,5.63
2018-12-18T03:38:01.893Z,5.27
2018-12-18T03:43:05.568Z,5.50
2018-12-18T03:48:09.318Z,5.33
2018-12-18T03:53:13.012Z,6.03
2018-12-18T03:58:16.432Z,5.67
2018-12-18T04:03:20.002Z,8.50
2018-12-18T04:08:23.408Z,5.20
2018-12-18T04:13:26.902Z,5.07
2018-12-18T04:18:30.301Z,5.20
2018-12-18T04:23:33.939Z,5.77
2018-12-18T04:28:37.485Z,4.90
2018-12-18T04:33:40.940Z,4.83
2018-12-18T04:38:44.346Z,5.27
2018-12-18T04:43:48.064Z,6.17
2018-12-18T04:48:51.676Z,5.80
2018-12-18T04:53:55.079Z,5.63
2018-12-18T04:58:58.710Z,5.30
2018-12-18T05:04:03.921Z,5.77
2018-12-18T05:09:09.899Z,5.60
2018-12-18T05:14:13.441Z,6.00
2018-12-18T05:19:16.894Z,5.87
2018-12-18T05:24:20.356Z,5.23
2018-12-18T05:29:23.756Z,6.30
2018-12-18T05:34:27.300Z,4.93
2018-12-18T05:39:30.848Z,5.87
2018-12-18T05:44:34.254Z,5.20
2018-12-18T05:49:37.692Z,5.27
2018-12-18T05:54:41.216Z,4.27
2018-12-18T05:59:44.661Z,4.70
2018-12-18T06:04:48.294Z,5.30
2018-12-18T06:09:51.843Z,4.47
2018-12-18T06:14:55.516Z,7.27
2018-12-18T06:19:59.232Z,6.37
2018-12-18T06:25:02.680Z,6.27
2018-12-18T06:30:06.978Z,6.13
2018-12-18T06:35:10.697Z,6.03
2018-12-18T06:40:14.483Z,6.47
2018-12-18T06:45:17.927Z,6.10
2018-12-18T06:50:21.611Z,5.63
2018-12-18T06:55:25.792Z,5.27
2018-12-18T07:00:29.324Z,5.27
2018-12-18T07:05:32.790Z,5.87
2018-12-18T07:10:36.323Z,5.03
2018-12-18T07:15:39.944Z,5.90
2018-12-18T07:20:43.560Z,6.00
2018-12-18T07:25:47.012Z,4.97
2018-12-18T07:30:50.691Z,6.43
2018-12-18T07:35:54.145Z,5.33
2018-12-18T07:40:57.564Z,5.20
2018-12-18T07:46:01.132Z,7.00
2018-12-18T07:51:04.535Z,7.13
2018-12-18T07:56:08.156Z,8.90
2018-12-18T08:01:11.589Z,7.40
2018-12-18T08:06:15.144Z,4.87
2018-12-18T08:11:18.804Z,5.93
2018-12-18T08:16:22.323Z,8.03
2018-12-18T08:21:25.869Z,12.77
2018-12-18T08:26:29.364Z,5.13
2018-12-18T08:31:32.783Z,4.23
2018-12-18T08:36:36.324Z,3.50
2018-12-18T08:41:39.744Z,3.37
2018-12-18T08:46:43.318Z,3.00
2018-12-18T08:51:46.920Z,3.30
2018-12-18T08:56:50.325Z,3.73
2018-12-18T09:01:53.871Z,4.47
2018-12-18T09:06:57.520Z,5.30
2018-12-18T09:12:00.924Z,4.07
2018-12-18T09:17:06.721Z,4.53
2018-12-18T09:22:10.464Z,4.80
2018-12-18T09:27:13.968Z,3.83
2018-12-18T09:32:17.440Z,5.80
2018-12-18T09:37:20.865Z,3.70
2018-12-18T09:42:29.837Z,4.00
2018-12-18T09:47:33.297Z,3.37
2018-12-18T09:52:36.820Z,3.97
2018-12-18T09:57:45.813Z,4.77
2018-12-18T10:02:49.268Z,4.13
2018-12-18T10:07:52.841Z,4.63
2018-12-18T10:12:57.236Z,4.53
2018-12-18T10:18:00.689Z,3.60
2018-12-18T10:23:04.160Z,3.87
2018-12-18T10:28:07.744Z,6.10
2018-12-18T10:33:11.280Z,3.90
2018-12-18T10:38:14.858Z,9.73
2018-12-18T10:43:18.472Z,4.50
2018-12-18T10:48:21.992Z,4.53
2018-12-18T10:53:25.592Z,3.60
2018-12-18T10:58:29.164Z,4.70
2018-12-18T11:03:32.836Z,3.60
2018-12-18T11:08:36.505Z,3.87
2018-12-18T11:13:39.928Z,2.50
2018-12-18T11:18:43.432Z,2.40
2018-12-18T11:23:46.931Z,2.30
2018-12-18T11:28:50.455Z,2.20
2018-12-18T11:33:53.972Z,2.23
2018-12-18T11:38:57.527Z,2.30
2018-12-18T11:44:01.108Z,4.13
2018-12-18T11:49:04.602Z,2.90
2018-12-18T11:54:08.189Z,5.30
2018-12-18T11:59:11.707Z,15.67
2018-12-18T12:04:15.156Z,1.90
2018-12-18T12:09:18.584Z,2.60
2018-12-18T12:14:22.001Z,2.80
2018-12-18T12:19:25.506Z,2.23
2018-12-18T12:24:28.969Z,2.53
2018-12-18T12:29:32.422Z,2.93
2018-12-18T12:34:35.837Z,3.50
2018-12-18T12:39:39.411Z,2.93
2018-12-18T12:44:42.853Z,2.97
2018-12-18T12:49:46.258Z,3.30
2018-12-18T12:54:49.848Z,3.13
2018-12-18T12:59:53.296Z,2.87
2018-12-18T13:04:56.688Z,2.10
2018-12-18T13:10:00.405Z,2.17
2018-12-18T13:15:05.128Z,2.63
2018-12-18T13:20:08.808Z,2.27
2018-12-18T13:25:12.478Z,2.60
2018-12-18T13:30:16.097Z,3.37
2018-12-18T13:35:19.588Z,2.83
2018-12-18T13:40:23.128Z,2.67
2018-12-18T13:45:26.637Z,2.53
2018-12-18T13:50:30.177Z,3.17
2018-12-18T13:55:36.680Z,2.83
2018-12-18T14:00:39.212Z,3.07
2018-12-18T14:05:42.688Z,3.83
2018-12-18T14:10:46.237Z,5.20
2018-12-18T14:15:49.756Z,4.03
2018-12-18T14:20:54.681Z,6.87
2018-12-18T14:25:58.329Z,6.43
2018-12-18T14:31:01.741Z,7.27
2018-12-18T14:36:05.156Z,5.53
2018-12-18T14:41:08.669Z,7.23
2018-12-18T14:46:12.079Z,5.60
2018-12-18T14:51:15.540Z,6.17
2018-12-18T14:56:19.589Z,6.67
2018-12-18T15:01:23.072Z,7.13
2018-12-18T15:06:26.556Z,6.73
2018-12-18T15:11:30.152Z,7.60
2018-12-18T15:16:33.904Z,7.70
2018-12-18T15:21:37.460Z,7.47
2018-12-18T15:26:40.960Z,8.23
2018-12-18T15:31:44.492Z,8.70
2018-12-18T15:36:47.988Z,9.00
2018-12-18T15:41:51.464Z,8.17
2018-12-18T15:46:54.987Z,8.63
2018-12-18T15:51:58.475Z,7.83
2018-12-18T15:57:02.212Z,9.40
2018-12-18T16:02:05.773Z,9.33
2018-12-18T16:07:09.252Z,7.97
2018-12-18T16:12:12.808Z,7.30
2018-12-18T16:17:16.256Z,8.47
2018-12-18T16:22:19.716Z,7.40
2018-12-18T16:27:23.252Z,8.10
2018-12-18T16:32:26.692Z,9.13
2018-12-18T16:37:30.205Z,9.03
2018-12-18T16:42:33.764Z,11.67
2018-12-18T16:47:37.360Z,11.40
2018-12-18T16:52:40.855Z,14.27
2018-12-18T16:57:44.332Z,11.57
2018-12-18T17:02:47.842Z,10.17
2018-12-18T17:07:51.425Z,12.30
2018-12-18T17:12:56.131Z,11.53
2018-12-18T17:17:59.571Z,11.57
2018-12-18T17:23:03.122Z,13.37
2018-12-18T17:28:06.557Z,8.90
2018-12-18T17:33:09.983Z,9.00
2018-12-18T17:38:13.655Z,9.07
2018-12-18T17:43:17.980Z,8.30
2018-12-18T17:48:21.580Z,8.10
2018-12-18T17:53:25.135Z,7.70
2018-12-18T17:58:28.707Z,7.53
2018-12-18T18:03:32.520Z,8.50
2018-12-18T18:08:35.924Z,8.20
2018-12-18T18:13:39.449Z,7.40
2018-12-18T18:18:42.953Z,5.20
2018-12-18T18:23:46.392Z,7.97
2018-12-18T18:28:49.893Z,8.27
2018-12-18T18:33:53.348Z,8.47
2018-12-18T18:38:56.859Z,7.53
2018-12-18T18:44:00.429Z,7.77
2018-12-18T18:49:04.108Z,9.73
2018-12-18T18:54:07.572Z,9.13
2018-12-18T18:59:11.116Z,9.90
2018-12-18T19:04:14.592Z,9.23
2018-12-18T19:09:18.056Z,8.23
2018-12-18T19:14:22.470Z,7.50
2018-12-18T19:19:26.784Z,7.13
2018-12-18T19:24:30.565Z,7.47
2018-12-18T19:29:34.217Z,7.93
2018-12-18T19:34:37.765Z,8.77
2018-12-18T19:39:41.752Z,7.07
2018-12-18T19:44:45.640Z,7.73
2018-12-18T19:49:49.325Z,7.23
2018-12-18T19:54:52.726Z,7.70
2018-12-18T19:59:56.220Z,8.03
2018-12-18T20:04:59.831Z,7.57
2018-12-18T20:10:03.608Z,9.07
2018-12-18T20:15:07.644Z,8.83
2018-12-18T20:20:11.472Z,7.57
2018-12-18T20:25:15.028Z,7.33
2018-12-18T20:30:18.748Z,7.37
2018-12-18T20:35:22.240Z,6.93
2018-12-18T20:40:25.732Z,8.50
2018-12-18T20:45:29.340Z,8.73
2018-12-18T20:50:32.989Z,8.00
2018-12-18T20:55:36.396Z,7.77
2018-12-18T21:00:40.037Z,8.50
2018-12-18T21:05:48.699Z,8.27
2018-12-18T21:10:53.557Z,8.27
2018-12-18T21:16:03.193Z,8.67
2018-12-18T21:21:08.133Z,8.50
2018-12-18T21:26:11.947Z,7.80
2018-12-18T21:31:15.669Z,6.70
2018-12-18T21:36:19.136Z,6.47
2018-12-18T21:41:22.797Z,6.50
2018-12-18T21:46:26.358Z,6.73
2018-12-18T21:51:30.628Z,7.17
2018-12-18T21:56:34.175Z,6.60
2018-12-18T22:01:37.720Z,6.83
2018-12-18T22:06:41.406Z,5.60
2018-12-18T22:11:45.009Z,6.93
2018-12-18T22:16:48.713Z,6.33
2018-12-18T22:21:52.447Z,6.47
2018-12-18T22:26:55.949Z,6.57
2018-12-18T22:31:59.356Z,6.60
2018-12-18T22:37:02.850Z,6.30
2018-12-18T22:42:06.292Z,7.00
2018-12-18T22:47:10.696Z,7.13
2018-12-18T22:52:14.344Z,7.73
2018-12-18T22:57:17.757Z,7.67
2018-12-18T23:02:21.272Z,6.73
2018-12-18T23:07:24.697Z,8.20
2018-12-18T23:12:28.317Z,9.57
2018-12-18T23:17:32.141Z,11.00
2018-12-18T23:22:35.697Z,10.00
2018-12-18T23:27:39.183Z,9.30
2018-12-18T23:32:42.586Z,9.80
2018-12-18T23:37:46.121Z,9.87
2018-12-18T23:42:49.557Z,9.23
2018-12-18T23:47:52.972Z,10.07
2018-12-18T23:52:56.500Z,10.23
2018-12-18T23:57:59.897Z,10.57
